aviador You're here:

KMYR Decoded Metar

MYRTLE BEACH in SC, USA
Report Time2018-05-25 08:56:00
UTC Time2018-05-25 09:09:18
Flight Rules mvfr MVFR
Wind080° at 03 kt
W.Decomp.*RWY 36: 0.2 kt HW 3.0 kt RCW
W.Rank080° ranks 34
Current wind is below 080° avg. (9.7)
Visibility9999 m
Phenomena:N/A
Clouds:Broken 012 Hf
Expected CloudBase > 400 ft AGL from Temp-Dew spread
Ceiling1,200 ft
Temp23°C (ISA +8)
Dew Point22°C (94% RH)
QNH1019 hPa
Density Alt1,109 ft
Elevation26 ft
Report Wrong Elevation
Raw Report
METAR KMYR 250856Z 08003KT 10SM BKN012 23/22 A3010 RMK AO2 SLP194 T02280217
58004=

Extra information for KMYR:More info

Metar Taf Metar & Taf Last 4 Metars F.Rules Stats Wind Profile Meteogram Temp Stats Airport Information Weather charts Add Link Nearby VenuesMetar ALERT Operation Metar Decoded Social comments

AIRNAV info for KMYR